createdAt,value
2022-09-07T00:00:38.972Z,19.64
2022-09-07T00:01:38.973Z,19.70
2022-09-07T00:02:39.027Z,19.77
2022-09-07T00:03:38.992Z,19.76
2022-09-07T00:04:39.058Z,19.74
2022-09-07T00:05:39.013Z,19.74
2022-09-07T00:06:39.024Z,19.71
2022-09-07T00:07:39.041Z,19.67
2022-09-07T00:08:39.045Z,19.59
2022-09-07T00:09:39.054Z,19.73
2022-09-07T00:10:39.074Z,19.66
2022-09-07T00:11:39.083Z,19.63
2022-09-07T00:12:39.096Z,19.52
2022-09-07T00:13:39.097Z,19.62
2022-09-07T00:14:39.117Z,19.51
2022-09-07T00:15:39.130Z,19.44
2022-09-07T00:16:39.181Z,19.41
2022-09-07T00:17:39.140Z,19.40
2022-09-07T00:18:42.479Z,19.49
2022-09-07T00:19:39.168Z,19.45
2022-09-07T00:20:39.177Z,19.51
2022-09-07T00:21:39.181Z,19.49
2022-09-07T00:22:39.190Z,19.39
2022-09-07T00:23:39.202Z,19.39
2022-09-07T00:24:39.221Z,19.36
2022-09-07T00:25:39.224Z,19.40
2022-09-07T00:26:39.240Z,19.37
2022-09-07T00:27:39.245Z,19.39
2022-09-07T00:28:39.264Z,19.49
2022-09-07T00:29:39.269Z,19.49
2022-09-07T00:30:39.274Z,19.49
2022-09-07T00:31:39.315Z,19.40
2022-09-07T00:32:39.302Z,19.48
2022-09-07T00:33:39.303Z,19.48
2022-09-07T00:34:39.322Z,19.49
2022-09-07T00:35:39.331Z,19.47
2022-09-07T00:36:39.337Z,19.47
2022-09-07T00:37:39.353Z,19.41
2022-09-07T00:38:39.363Z,19.44
2022-09-07T00:39:39.427Z,19.31
2022-09-07T00:40:39.378Z,19.40
2022-09-07T00:41:39.387Z,19.29
2022-09-07T00:42:39.398Z,19.37
2022-09-07T00:43:39.408Z,19.30
2022-09-07T00:44:39.424Z,19.31
2022-09-07T00:45:39.428Z,19.30
2022-09-07T00:46:39.470Z,19.36
2022-09-07T00:47:39.449Z,19.33
2022-09-07T00:48:39.458Z,19.37
2022-09-07T00:49:39.470Z,19.29
2022-09-07T00:50:39.479Z,19.37
2022-09-07T00:51:39.500Z,19.31
2022-09-07T00:52:39.506Z,19.30
2022-09-07T00:53:39.517Z,19.30
2022-09-07T00:54:39.527Z,19.36
2022-09-07T00:55:39.531Z,19.31
2022-09-07T00:56:39.544Z,19.31
2022-09-07T00:57:39.559Z,19.36
2022-09-07T00:58:39.560Z,19.27
2022-09-07T00:59:39.570Z,19.33
2022-09-07T01:00:39.590Z,19.31
2022-09-07T01:01:39.715Z,19.31
2022-09-07T01:02:39.821Z,19.31
2022-09-07T01:03:39.621Z,19.29
2022-09-07T01:04:39.623Z,19.31
2022-09-07T01:05:39.638Z,19.29
2022-09-07T01:06:39.681Z,19.34
2022-09-07T01:07:39.660Z,19.39
2022-09-07T01:08:39.671Z,19.33
2022-09-07T01:09:39.671Z,19.36
2022-09-07T01:10:39.692Z,19.33
2022-09-07T01:11:39.695Z,19.39
2022-09-07T01:12:39.704Z,19.41
2022-09-07T01:13:39.713Z,19.40
2022-09-07T01:14:39.732Z,19.33
2022-09-07T01:15:39.815Z,19.36
2022-09-07T01:16:39.745Z,19.27
2022-09-07T01:17:39.765Z,19.27
2022-09-07T01:18:39.773Z,19.31
2022-09-07T01:19:39.783Z,19.29
2022-09-07T01:20:39.786Z,19.31
2022-09-07T01:21:39.805Z,19.21
2022-09-07T01:22:39.812Z,19.22
2022-09-07T01:23:39.823Z,19.19
2022-09-07T01:24:39.835Z,19.12
2022-09-07T01:25:39.844Z,19.09
2022-09-07T01:26:39.846Z,19.08
2022-09-07T01:27:39.857Z,19.09
2022-09-07T01:28:39.873Z,19.04
2022-09-07T01:29:39.891Z,19.02
2022-09-07T01:30:39.885Z,18.95
2022-09-07T01:31:39.906Z,18.99
2022-09-07T01:32:39.914Z,18.96
2022-09-07T01:33:39.922Z,18.92
2022-09-07T01:34:39.928Z,18.95
2022-09-07T01:35:39.948Z,18.93
2022-09-07T01:36:39.949Z,18.93
2022-09-07T01:37:39.965Z,18.92
2022-09-07T01:38:39.974Z,19.08
2022-09-07T01:39:40.063Z,18.99
2022-09-07T01:40:39.996Z,18.96
2022-09-07T01:41:40.003Z,18.96
2022-09-07T01:42:40.011Z,18.89
2022-09-07T01:43:40.024Z,18.98
2022-09-07T01:44:40.035Z,18.96
2022-09-07T01:45:40.037Z,18.92
2022-09-07T01:46:40.157Z,18.96
2022-09-07T01:47:40.058Z,18.96
2022-09-07T01:48:40.077Z,18.86
2022-09-07T01:49:40.076Z,18.86
2022-09-07T01:50:40.091Z,18.92
2022-09-07T01:51:40.097Z,18.88
2022-09-07T01:52:40.114Z,18.89
2022-09-07T01:53:40.117Z,18.88
2022-09-07T01:54:40.134Z,18.95
2022-09-07T01:55:40.138Z,18.90
2022-09-07T01:56:40.156Z,18.92
2022-09-07T01:57:40.165Z,18.89
2022-09-07T01:58:40.174Z,18.92
2022-09-07T01:59:40.185Z,18.81
2022-09-07T02:00:40.187Z,18.95
2022-09-07T02:01:40.263Z,18.89
2022-09-07T02:02:40.274Z,18.93
2022-09-07T02:03:40.224Z,18.84
2022-09-07T02:04:40.228Z,18.86
2022-09-07T02:05:40.244Z,18.90
2022-09-07T02:06:40.250Z,18.86
2022-09-07T02:07:40.266Z,18.83
2022-09-07T02:08:40.277Z,18.88
2022-09-07T02:09:40.283Z,18.74
2022-09-07T02:10:40.295Z,18.86
2022-09-07T02:11:40.309Z,18.81
2022-09-07T02:12:40.318Z,18.84
2022-09-07T02:13:40.325Z,18.83
2022-09-07T02:14:40.333Z,18.77
2022-09-07T02:15:40.387Z,18.88
2022-09-07T02:16:40.346Z,18.75
2022-09-07T02:17:40.364Z,18.78
2022-09-07T02:18:40.367Z,18.81
2022-09-07T02:19:40.385Z,18.73
2022-09-07T02:20:40.385Z,18.81
2022-09-07T02:21:40.396Z,18.73
2022-09-07T02:22:40.411Z,18.73
2022-09-07T02:23:40.424Z,18.80
2022-09-07T02:24:40.435Z,18.77
2022-09-07T02:25:40.438Z,18.70
2022-09-07T02:26:40.456Z,18.71
2022-09-07T02:27:40.454Z,18.77
2022-09-07T02:28:40.466Z,18.77
2022-09-07T02:29:40.483Z,18.75
2022-09-07T02:30:40.561Z,18.75
2022-09-07T02:31:40.498Z,18.78
2022-09-07T02:32:40.520Z,18.75
2022-09-07T02:33:40.517Z,18.78
2022-09-07T02:34:40.532Z,18.78
2022-09-07T02:35:40.553Z,18.75
2022-09-07T02:36:40.547Z,18.73
2022-09-07T02:37:40.554Z,18.75
2022-09-07T02:38:40.610Z,18.75
2022-09-07T02:39:40.674Z,18.68
2022-09-07T02:40:40.584Z,18.65
2022-09-07T02:41:40.600Z,18.70
2022-09-07T02:42:40.603Z,18.70
2022-09-07T02:43:40.621Z,18.63
2022-09-07T02:44:40.630Z,18.73
2022-09-07T02:45:40.633Z,18.65
2022-09-07T02:46:40.739Z,18.68
2022-09-07T02:47:40.652Z,18.68
2022-09-07T02:48:40.669Z,18.68
2022-09-07T02:49:40.672Z,18.63
2022-09-07T02:50:40.680Z,18.68
2022-09-07T02:51:40.703Z,18.56
2022-09-07T02:52:40.707Z,18.62
2022-09-07T02:53:40.711Z,18.58
2022-09-07T02:54:40.732Z,18.53
2022-09-07T02:55:40.741Z,18.60
2022-09-07T02:56:40.740Z,18.56
2022-09-07T02:57:40.750Z,18.55
2022-09-07T03:04:17.577Z,18.56
2022-09-07T03:05:17.585Z,18.59
2022-09-07T03:06:17.598Z,18.55
2022-09-07T03:07:17.597Z,18.55
2022-09-07T03:08:17.615Z,18.53
2022-09-07T03:27:30.151Z,18.33
2022-09-07T03:28:30.292Z,18.35
2022-09-07T03:29:30.177Z,18.29
2022-09-07T03:30:30.250Z,18.34
2022-09-07T03:31:30.195Z,18.26
2022-09-07T03:32:30.196Z,18.20
2022-09-07T03:33:30.209Z,18.28
2022-09-07T03:34:30.230Z,18.26
2022-09-07T03:35:30.223Z,18.18
2022-09-07T03:36:30.234Z,18.18
2022-09-07T03:37:30.257Z,18.20
2022-09-07T03:38:30.550Z,18.16
2022-09-07T03:39:30.279Z,18.11
2022-09-07T03:40:30.280Z,18.15
2022-09-07T03:41:30.281Z,18.19
2022-09-07T03:42:30.298Z,18.11
2022-09-07T03:43:30.309Z,18.08
2022-09-07T03:44:30.320Z,18.08
2022-09-07T03:45:30.319Z,18.01
2022-09-07T03:46:30.429Z,18.05
2022-09-07T03:47:30.344Z,18.10
2022-09-07T03:48:30.412Z,18.05
2022-09-07T03:49:30.357Z,18.03
2022-09-07T03:50:30.373Z,18.00
2022-09-07T03:51:30.378Z,18.03
2022-09-07T03:52:30.386Z,17.98
2022-09-07T03:53:30.396Z,17.98
2022-09-07T03:54:30.410Z,17.95
2022-09-07T03:55:30.422Z,17.92
2022-09-07T03:56:30.429Z,17.89
2022-09-07T03:57:30.442Z,17.95
2022-09-07T03:58:30.649Z,17.86
2022-09-07T03:59:30.453Z,17.92
2022-09-07T04:00:30.460Z,17.86
2022-09-07T04:01:30.560Z,17.85
2022-09-07T04:02:30.556Z,17.85
2022-09-07T04:03:30.489Z,17.83
2022-09-07T04:04:30.498Z,17.83
2022-09-07T04:05:30.510Z,17.79
2022-09-07T04:06:30.516Z,17.80
2022-09-07T04:07:30.535Z,17.82
2022-09-07T04:08:30.713Z,17.86
2022-09-07T04:09:30.551Z,17.72
2022-09-07T04:10:30.554Z,17.74
2022-09-07T04:11:30.570Z,17.74
2022-09-07T04:12:30.581Z,17.76
2022-09-07T04:13:30.581Z,17.74
2022-09-07T04:14:30.601Z,17.82
2022-09-07T04:15:30.600Z,17.94
2022-09-07T04:16:30.640Z,17.74
2022-09-07T04:17:30.619Z,17.72
2022-09-07T04:18:30.760Z,17.78
2022-09-07T04:19:30.646Z,17.76
2022-09-07T04:20:30.655Z,17.78
2022-09-07T04:21:30.656Z,17.70
2022-09-07T04:22:30.674Z,17.83
2022-09-07T04:23:30.683Z,17.83
2022-09-07T04:24:30.694Z,17.83
2022-09-07T04:25:30.706Z,17.82
2022-09-07T04:26:30.710Z,17.83
2022-09-07T04:27:30.713Z,17.83
2022-09-07T04:28:30.837Z,17.87
2022-09-07T04:29:30.733Z,17.89
2022-09-07T04:30:30.810Z,17.79
2022-09-07T04:31:30.763Z,17.76
2022-09-07T04:32:30.765Z,17.74
2022-09-07T04:33:30.776Z,17.87
2022-09-07T04:34:30.781Z,17.83
2022-09-07T04:35:30.795Z,17.74
2022-09-07T04:36:30.796Z,17.85
2022-09-07T04:37:30.807Z,17.83
2022-09-07T04:38:30.941Z,17.80
2022-09-07T04:39:30.889Z,17.86
2022-09-07T04:40:30.833Z,17.86
2022-09-07T04:41:30.857Z,17.87
2022-09-07T04:42:30.860Z,17.76
2022-09-07T04:43:31.065Z,17.68
2022-09-07T04:44:30.897Z,17.83
2022-09-07T04:45:30.880Z,17.63
2022-09-07T04:46:30.897Z,17.67
2022-09-07T04:47:30.905Z,17.72
2022-09-07T04:48:31.037Z,17.63
2022-09-07T04:49:30.925Z,17.57
2022-09-07T04:50:30.936Z,17.57
2022-09-07T04:51:30.935Z,17.59
2022-09-07T04:52:30.954Z,17.57
2022-09-07T04:53:30.955Z,17.59
2022-09-07T04:54:30.974Z,17.56
2022-09-07T04:55:30.980Z,17.59
2022-09-07T04:56:30.991Z,17.56
2022-09-07T04:57:30.992Z,17.68
2022-09-07T04:58:31.159Z,17.65
2022-09-07T04:59:31.016Z,17.79
2022-09-07T05:00:31.024Z,17.78
2022-09-07T05:01:31.133Z,17.82
2022-09-07T05:02:31.076Z,17.80
2022-09-07T05:03:31.055Z,17.67
2022-09-07T05:04:31.055Z,17.71
2022-09-07T05:05:31.073Z,17.78
2022-09-07T05:06:31.089Z,17.72
2022-09-07T05:07:31.091Z,17.72
2022-09-07T05:08:31.218Z,17.72
2022-09-07T05:09:31.112Z,17.74
2022-09-07T05:10:31.110Z,17.76
2022-09-07T05:11:31.122Z,17.67
2022-09-07T05:12:31.138Z,17.59
2022-09-07T05:13:31.140Z,17.56
2022-09-07T05:14:31.155Z,17.59
2022-09-07T05:15:31.158Z,17.56
2022-09-07T05:16:31.244Z,17.56
2022-09-07T05:17:31.189Z,17.57
2022-09-07T05:18:31.438Z,17.59
2022-09-07T05:19:31.196Z,17.68
2022-09-07T05:20:31.211Z,17.72
2022-09-07T05:21:31.216Z,17.76
2022-09-07T05:22:31.229Z,17.80
2022-09-07T05:23:31.241Z,17.72
2022-09-07T05:24:31.249Z,17.72
2022-09-07T05:25:31.253Z,17.74
2022-09-07T05:26:31.267Z,17.79
2022-09-07T05:27:31.272Z,17.78
2022-09-07T05:28:31.720Z,17.80
2022-09-07T05:31:31.308Z,17.71
2022-09-07T05:32:31.326Z,17.76
2022-09-07T05:34:31.817Z,17.78
2022-09-07T05:35:31.353Z,17.70
2022-09-07T05:36:31.355Z,17.85
2022-09-07T05:37:31.371Z,17.72
2022-09-07T05:38:31.558Z,17.78
2022-09-07T05:39:31.489Z,17.76
2022-09-07T05:40:31.390Z,17.72
2022-09-07T05:41:31.408Z,17.71
2022-09-07T05:42:31.408Z,17.65
2022-09-07T05:43:31.427Z,17.67
2022-09-07T05:44:46.811Z,17.70
2022-09-07T05:45:31.482Z,17.71
2022-09-07T05:46:31.447Z,17.60
2022-09-07T05:47:31.463Z,17.59
2022-09-07T05:48:31.663Z,17.57
2022-09-07T05:49:31.478Z,17.56
2022-09-07T05:50:31.482Z,17.56
2022-09-07T05:51:31.494Z,17.59
2022-09-07T05:52:31.512Z,17.57
2022-09-07T05:53:31.520Z,17.59
2022-09-07T05:54:31.522Z,17.54
2022-09-07T05:55:31.537Z,17.46
2022-09-07T05:56:31.549Z,17.46
2022-09-07T05:57:31.550Z,17.51
2022-09-07T05:58:31.675Z,17.46
2022-09-07T05:59:31.571Z,17.46
2022-09-07T06:00:31.579Z,17.52
2022-09-07T06:01:31.588Z,17.64
2022-09-07T06:02:33.686Z,17.56
2022-09-07T06:03:31.701Z,17.57
2022-09-07T06:04:31.617Z,17.68
2022-09-07T06:05:31.632Z,17.67
2022-09-07T06:06:31.635Z,17.60
2022-09-07T06:07:31.653Z,17.68
2022-09-07T06:08:31.814Z,17.83
2022-09-07T06:09:31.678Z,17.85
2022-09-07T06:10:47.131Z,17.95
2022-09-07T06:11:31.681Z,18.07
2022-09-07T06:12:31.688Z,18.16
2022-09-07T06:13:31.843Z,18.22
2022-09-07T06:14:31.707Z,18.23
2022-09-07T06:15:31.727Z,18.29
2022-09-07T06:16:31.806Z,18.34
2022-09-07T06:17:31.744Z,18.44
2022-09-07T06:18:31.750Z,18.44
2022-09-07T06:19:31.767Z,18.41
2022-09-07T06:20:31.772Z,18.45
2022-09-07T06:21:31.783Z,18.53
2022-09-07T06:22:31.785Z,18.56
2022-09-07T06:23:31.945Z,18.55
2022-09-07T06:24:31.810Z,18.66
2022-09-07T06:25:31.821Z,18.70
2022-09-07T06:26:31.823Z,18.70
2022-09-07T06:27:31.839Z,18.84
2022-09-07T06:28:31.852Z,18.74
2022-09-07T06:29:31.852Z,18.77
2022-09-07T06:30:31.874Z,18.89
2022-09-07T06:31:31.986Z,18.92
2022-09-07T06:32:47.349Z,19.07
2022-09-07T06:33:31.966Z,19.08
2022-09-07T06:34:31.908Z,19.16
2022-09-07T06:35:31.917Z,19.16
2022-09-07T06:36:31.921Z,19.19
2022-09-07T06:37:31.939Z,19.24
2022-09-07T06:38:32.111Z,19.27
2022-09-07T06:39:31.994Z,19.27
2022-09-07T06:40:31.968Z,19.33
2022-09-07T06:42:31.987Z,19.37
2022-09-07T06:43:32.155Z,19.33
2022-09-07T06:44:32.000Z,19.29
2022-09-07T06:45:32.071Z,19.30
2022-09-07T06:47:32.038Z,19.16
2022-09-07T06:48:32.292Z,19.15
2022-09-07T06:49:32.061Z,19.19
2022-09-07T06:50:32.058Z,19.22
2022-09-07T06:51:32.077Z,19.26
2022-09-07T06:55:01.983Z,19.41
2022-09-07T06:55:32.110Z,19.39
2022-09-07T06:56:32.126Z,19.40
2022-09-07T06:57:32.131Z,19.39
2022-09-07T06:58:32.343Z,19.47
2022-09-07T06:59:32.159Z,19.47
2022-09-07T07:00:32.168Z,19.58
2022-09-07T07:01:32.202Z,19.52
2022-09-07T07:02:32.189Z,19.66
2022-09-07T07:03:32.271Z,19.67
2022-09-07T07:04:34.185Z,19.71
2022-09-07T07:05:32.211Z,19.74
2022-09-07T07:06:32.229Z,19.82
2022-09-07T07:07:32.238Z,19.79
2022-09-07T07:08:32.381Z,19.91
2022-09-07T07:09:32.260Z,19.94
2022-09-07T07:10:32.272Z,20.07
2022-09-07T07:11:32.284Z,20.06
2022-09-07T07:13:54.347Z,20.24
2022-09-07T07:14:54.333Z,20.25
2022-09-07T07:15:54.487Z,20.24
2022-09-07T07:16:54.363Z,20.34
2022-09-07T07:17:59.116Z,20.26
2022-09-07T07:18:54.385Z,20.34
2022-09-07T07:19:54.393Z,20.41
2022-09-07T07:22:57.003Z,20.50
2022-09-07T07:23:57.004Z,20.48
2022-09-07T07:24:57.016Z,20.47
2022-09-07T07:25:57.024Z,20.50
2022-09-07T07:26:57.045Z,20.52
2022-09-07T07:27:57.141Z,20.62
2022-09-07T07:29:57.074Z,20.80
2022-09-07T07:30:57.102Z,20.85
2022-09-07T07:31:57.091Z,20.97
2022-09-07T07:32:57.145Z,20.95
2022-09-07T07:33:57.187Z,20.95
2022-09-07T07:34:57.131Z,21.03
2022-09-07T07:35:57.142Z,21.06
2022-09-07T07:36:57.152Z,21.22
2022-09-07T07:42:00.125Z,21.33
2022-09-07T07:42:57.213Z,21.36
2022-09-07T07:43:57.235Z,21.48
2022-09-07T07:45:59.163Z,21.52
2022-09-07T07:46:57.364Z,21.66
2022-09-07T07:47:57.270Z,21.77
2022-09-07T07:48:57.287Z,21.79
2022-09-07T07:50:57.302Z,21.88
2022-09-07T07:53:57.645Z,22.04
2022-09-07T07:54:57.351Z,22.17
2022-09-07T07:55:57.362Z,22.17
2022-09-07T07:56:57.381Z,22.06
2022-09-07T07:57:57.385Z,22.00
2022-09-07T07:58:57.406Z,22.04
2022-09-07T07:59:57.416Z,21.93
2022-09-07T08:00:57.749Z,21.89
2022-09-07T08:01:57.591Z,21.82
2022-09-07T08:02:57.453Z,21.69
2022-09-07T08:03:57.455Z,21.57
2022-09-07T08:04:57.472Z,21.60
2022-09-07T08:05:57.507Z,21.61
2022-09-07T08:06:57.494Z,21.60
2022-09-07T08:07:57.511Z,21.50
2022-09-07T08:08:57.524Z,21.51
2022-09-07T08:09:57.529Z,21.48
2022-09-07T08:10:57.551Z,21.37
2022-09-07T08:11:57.561Z,21.22
2022-09-07T08:12:57.564Z,21.18
2022-09-07T08:13:57.583Z,21.09
2022-09-07T08:14:57.587Z,20.92
2022-09-07T08:15:57.624Z,20.81
2022-09-07T08:16:57.618Z,20.80
2022-09-07T08:17:57.631Z,20.66
2022-09-07T08:18:57.634Z,20.59
2022-09-07T08:19:57.653Z,20.59
2022-09-07T08:20:57.659Z,20.51
2022-09-07T08:21:57.696Z,20.58
2022-09-07T08:22:57.687Z,20.60
2022-09-07T08:23:57.699Z,20.59
2022-09-07T08:24:57.702Z,20.58
2022-09-07T08:25:57.717Z,20.44
2022-09-07T08:26:57.738Z,20.52
2022-09-07T08:27:57.744Z,20.40
2022-09-07T08:28:57.750Z,20.41
2022-09-07T08:29:57.759Z,20.48
2022-09-07T08:30:57.801Z,20.44
2022-09-07T08:31:57.846Z,20.51
2022-09-07T08:32:57.795Z,20.47
2022-09-07T08:33:57.811Z,20.37
2022-09-07T08:34:57.828Z,20.43
2022-09-07T08:35:57.834Z,20.41
2022-09-07T08:36:57.847Z,20.39
2022-09-07T08:37:57.883Z,20.40
2022-09-07T08:38:57.863Z,20.41
2022-09-07T08:39:57.941Z,20.41
2022-09-07T08:40:57.884Z,20.43
2022-09-07T08:41:57.894Z,20.48
2022-09-07T08:42:57.906Z,20.37
2022-09-07T08:43:57.917Z,20.37
2022-09-07T08:44:57.934Z,20.41
2022-09-07T08:45:57.947Z,20.40
2022-09-07T08:46:58.051Z,20.47
2022-09-07T08:47:57.962Z,20.52
2022-09-07T08:48:57.980Z,20.56
2022-09-07T08:49:57.984Z,20.60
2022-09-07T08:50:58.000Z,20.63
2022-09-07T08:51:58.013Z,20.66
2022-09-07T08:52:58.019Z,20.67
2022-09-07T08:53:58.055Z,20.80
2022-09-07T08:54:58.039Z,20.84
2022-09-07T08:55:58.051Z,20.90
2022-09-07T08:57:58.073Z,21.05
2022-09-07T08:58:58.091Z,21.15
2022-09-07T08:59:58.105Z,21.14
2022-09-07T09:05:58.277Z,21.22
2022-09-07T09:06:58.366Z,21.32
2022-09-07T09:07:58.195Z,21.35
2022-09-07T09:08:58.201Z,21.39
2022-09-07T09:09:58.238Z,21.45
2022-09-07T09:10:58.230Z,21.48
2022-09-07T09:11:58.240Z,21.57
2022-09-07T09:12:58.255Z,21.60
2022-09-07T09:13:58.259Z,21.67
2022-09-07T09:14:58.316Z,21.57
2022-09-07T09:15:58.370Z,21.70
2022-09-07T09:16:58.297Z,21.69
2022-09-07T09:17:58.304Z,21.85
2022-09-07T09:18:58.323Z,21.92
2022-09-07T09:19:58.339Z,22.00
2022-09-07T09:20:58.341Z,22.10
2022-09-07T09:21:58.354Z,22.30
2022-09-07T09:22:58.365Z,22.35
2022-09-07T09:23:58.387Z,22.65
2022-09-07T09:24:58.477Z,22.91
2022-09-07T09:25:58.431Z,22.91
2022-09-07T09:26:58.424Z,23.09
2022-09-07T09:27:58.441Z,23.15
2022-09-07T09:28:58.449Z,23.13
2022-09-07T09:29:58.464Z,23.20
2022-09-07T09:30:58.535Z,23.15
2022-09-07T09:31:58.490Z,23.23
2022-09-07T09:32:58.496Z,23.15
2022-09-07T09:33:58.509Z,23.21
2022-09-07T09:34:58.547Z,23.15
2022-09-07T09:35:58.541Z,23.23
2022-09-07T09:36:58.547Z,23.24
2022-09-07T09:37:58.561Z,23.43
2022-09-07T09:38:58.582Z,23.48
2022-09-07T09:40:02.188Z,23.54
2022-09-07T09:40:58.601Z,23.56
2022-09-07T09:41:58.640Z,23.66
2022-09-07T09:42:58.637Z,23.65
2022-09-07T09:43:58.641Z,23.73
2022-09-07T09:44:58.663Z,23.74
2022-09-07T09:46:14.166Z,23.69
2022-09-07T09:47:58.773Z,23.68
2022-09-07T09:48:58.717Z,23.63
2022-09-07T09:49:58.725Z,23.62
2022-09-07T09:52:58.765Z,23.51
2022-09-07T09:53:58.785Z,23.46
2022-09-07T09:55:23.249Z,23.46
2022-09-07T09:55:58.805Z,23.55
2022-09-07T09:56:58.825Z,23.46
2022-09-07T09:59:56.904Z,23.47
2022-09-07T10:00:02.763Z,23.56
2022-09-07T10:04:01.146Z,23.47
2022-09-07T10:04:58.934Z,23.47
2022-09-07T10:05:58.949Z,23.46
2022-09-07T10:06:58.957Z,23.56
2022-09-07T10:07:58.973Z,23.63
2022-09-07T10:08:59.017Z,23.74
2022-09-07T10:09:59.003Z,23.93
2022-09-07T10:10:59.009Z,24.13
2022-09-07T10:12:07.056Z,24.54
2022-09-07T10:12:59.054Z,24.76
2022-09-07T10:13:59.070Z,24.89
2022-09-07T10:18:59.410Z,25.46
2022-09-07T10:19:59.429Z,25.46
2022-09-07T10:20:59.439Z,25.40
2022-09-07T10:21:59.453Z,25.33
2022-09-07T10:22:59.882Z,25.31
2022-09-07T10:23:59.482Z,25.35
2022-09-07T10:24:59.498Z,25.32
2022-09-07T10:25:59.512Z,25.43
2022-09-07T10:26:59.537Z,25.46
2022-09-07T10:27:59.550Z,25.46
2022-09-07T10:29:07.191Z,25.47
2022-09-07T10:29:59.602Z,25.35
2022-09-07T10:30:59.623Z,25.31
2022-09-07T10:31:59.605Z,25.36
2022-09-07T10:32:59.625Z,25.32
2022-09-07T10:34:29.448Z,25.54
2022-09-07T10:34:59.657Z,25.75
2022-09-07T10:36:52.237Z,26.58
2022-09-07T10:40:12.511Z,27.42
2022-09-07T10:41:12.488Z,27.58
2022-09-07T10:42:12.503Z,27.75
2022-09-07T10:43:27.833Z,27.92
2022-09-07T15:18:08.264Z,27.64
2022-09-07T15:19:02.223Z,27.63
2022-09-07T15:20:02.240Z,27.59
2022-09-07T15:21:02.304Z,27.52
2022-09-07T15:22:02.483Z,27.58
2022-09-07T15:23:02.961Z,27.48
2022-09-07T15:24:02.317Z,27.39
2022-09-07T15:25:02.335Z,27.39
2022-09-07T15:26:02.361Z,27.39
2022-09-07T15:27:03.003Z,27.36
2022-09-07T15:28:02.398Z,27.27
2022-09-07T15:29:11.053Z,27.32
2022-09-07T15:30:02.439Z,27.30
2022-09-07T15:32:04.895Z,27.27
2022-09-07T15:33:02.501Z,27.20
2022-09-07T15:34:02.497Z,27.27
2022-09-07T15:35:02.517Z,27.22
2022-09-07T15:36:02.539Z,27.18
2022-09-07T15:37:04.202Z,27.17
2022-09-07T15:38:04.578Z,27.17
2022-09-07T15:39:03.576Z,27.15
2022-09-07T15:40:02.651Z,27.12
2022-09-07T15:41:24.126Z,27.08
2022-09-07T15:42:59.576Z,27.12
2022-09-07T15:43:13.763Z,27.07
2022-09-07T15:44:02.673Z,26.99
2022-09-07T15:45:02.698Z,26.96
2022-09-07T15:46:03.764Z,26.99
2022-09-07T15:48:02.749Z,26.95
2022-09-07T15:49:02.784Z,26.93
2022-09-07T15:50:03.357Z,26.85
2022-09-07T15:51:03.421Z,26.92
2022-09-07T15:52:06.455Z,26.88
2022-09-07T15:53:03.354Z,26.84
2022-09-07T15:54:18.227Z,26.81
2022-09-07T15:55:02.859Z,26.77
2022-09-07T15:56:03.204Z,26.75
2022-09-07T15:58:11.400Z,26.78
2022-09-07T15:59:02.927Z,26.65
2022-09-07T16:00:02.942Z,26.74
2022-09-07T16:02:03.350Z,26.70
2022-09-07T16:03:04.997Z,26.62
2022-09-07T16:04:04.642Z,26.55
2022-09-07T16:08:36.533Z,26.43
2022-09-07T16:09:37.677Z,26.47
2022-09-07T16:10:36.535Z,26.43
2022-09-07T16:11:36.560Z,26.37
2022-09-07T16:39:49.790Z,25.85
2022-09-07T16:40:49.976Z,25.69
2022-09-07T16:41:49.080Z,25.77
2022-09-07T16:42:49.088Z,25.75
2022-09-07T16:43:49.111Z,25.81
2022-09-07T16:44:49.351Z,25.73
2022-09-07T16:46:04.984Z,25.80
2022-09-07T16:46:50.451Z,25.77
2022-09-07T16:47:49.158Z,25.77
2022-09-07T16:48:49.182Z,25.72
2022-09-07T16:49:49.204Z,25.77
2022-09-07T16:50:49.203Z,25.75
2022-09-07T16:51:49.866Z,25.75
2022-09-07T16:52:49.233Z,25.73
2022-09-07T16:53:49.256Z,25.66
2022-09-07T16:54:49.718Z,25.60
2022-09-07T16:55:49.295Z,25.63
2022-09-07T16:56:49.294Z,25.68
2022-09-07T16:58:49.888Z,25.66
2022-09-07T16:59:49.383Z,25.66
2022-09-07T17:00:49.419Z,25.68
2022-09-07T17:01:49.363Z,25.66
2022-09-07T17:02:49.381Z,25.62
2022-09-07T17:03:49.731Z,25.60
2022-09-07T17:04:49.420Z,25.66
2022-09-07T17:05:49.431Z,25.66
2022-09-07T17:06:49.445Z,25.63
2022-09-07T17:07:49.457Z,25.60
2022-09-07T17:08:49.470Z,25.58
2022-09-07T17:09:49.505Z,25.51
2022-09-07T17:10:49.497Z,25.59
2022-09-07T17:11:49.669Z,25.51
2022-09-07T17:12:49.526Z,25.50
2022-09-07T17:13:49.551Z,25.51
2022-09-07T17:14:49.562Z,25.40
2022-09-07T17:15:49.580Z,25.36
2022-09-07T17:16:49.659Z,25.40
2022-09-07T17:17:49.607Z,25.41
2022-09-07T17:19:49.702Z,25.32
2022-09-07T17:20:49.653Z,25.33
2022-09-07T17:21:49.665Z,25.29
2022-09-07T17:22:49.680Z,25.26
2022-09-07T17:23:55.228Z,25.28
2022-09-07T17:24:49.708Z,25.18
2022-09-07T17:25:49.723Z,25.18
2022-09-07T17:26:49.739Z,25.22
2022-09-07T17:27:49.768Z,25.18
2022-09-07T17:28:49.768Z,25.10
2022-09-07T17:29:49.783Z,25.10
2022-09-07T17:30:49.790Z,25.06
2022-09-07T17:32:49.936Z,24.99
2022-09-07T17:33:49.847Z,24.91
2022-09-07T17:34:49.848Z,24.91
2022-09-07T17:35:49.863Z,24.85
2022-09-07T17:36:49.876Z,24.84
2022-09-07T17:37:50.099Z,24.80
2022-09-07T17:39:50.018Z,24.77
2022-09-07T17:40:49.941Z,24.73
2022-09-07T17:41:49.949Z,24.76
2022-09-07T17:43:49.998Z,24.77
2022-09-07T17:44:52.772Z,24.77
2022-09-07T17:45:50.067Z,24.66
2022-09-07T17:46:50.027Z,24.60
2022-09-07T17:47:50.042Z,24.63
2022-09-07T17:48:50.048Z,24.55
2022-09-07T18:02:35.883Z,24.36
2022-09-07T18:03:36.183Z,24.36
2022-09-07T18:04:35.998Z,24.32
2022-09-07T18:05:35.915Z,24.36
2022-09-07T18:06:35.929Z,24.47
2022-09-07T18:07:35.943Z,24.28
2022-09-07T18:08:35.947Z,24.24
2022-09-07T18:09:35.961Z,24.30
2022-09-07T18:11:51.460Z,24.33
2022-09-07T18:12:36.014Z,24.32
2022-09-07T18:13:37.054Z,24.24
2022-09-07T18:14:36.043Z,24.29
2022-09-07T18:15:36.465Z,24.24
2022-09-07T18:16:36.155Z,24.24
2022-09-07T18:17:36.081Z,24.24
2022-09-07T18:18:36.112Z,24.18
2022-09-07T18:19:36.108Z,24.17
2022-09-07T18:20:36.115Z,24.20
2022-09-07T18:21:36.133Z,24.20
2022-09-07T18:22:36.149Z,24.17
2022-09-07T18:23:36.155Z,24.13
2022-09-07T18:24:36.945Z,24.11
2022-09-07T18:25:36.190Z,24.20
2022-09-07T18:26:36.196Z,24.16
2022-09-07T18:27:36.209Z,24.08
2022-09-07T18:29:36.236Z,24.06
2022-09-07T18:30:36.257Z,24.01
2022-09-07T18:31:36.334Z,24.05
2022-09-07T18:32:36.286Z,24.03
2022-09-07T18:33:36.300Z,24.05
2022-09-07T18:34:36.337Z,24.02
2022-09-07T18:35:36.320Z,24.01
2022-09-07T18:36:36.340Z,24.01
2022-09-07T18:37:36.359Z,24.03
2022-09-07T18:38:36.360Z,24.10
2022-09-07T18:39:36.432Z,24.03
2022-09-07T18:40:38.385Z,24.05
2022-09-07T18:41:36.409Z,24.08
2022-09-07T18:42:36.420Z,24.06
2022-09-07T18:43:37.968Z,24.05
2022-09-07T18:45:36.509Z,24.02
2022-09-07T18:46:36.546Z,24.11
2022-09-07T18:47:36.491Z,24.03
2022-09-07T18:48:36.496Z,24.10
2022-09-07T18:49:36.510Z,24.01
2022-09-07T18:50:36.549Z,24.05
2022-09-07T18:52:51.640Z,24.02
2022-09-07T18:52:52.876Z,23.99
2022-09-07T18:53:36.563Z,24.02
2022-09-07T18:54:36.588Z,24.01
2022-09-07T18:55:36.591Z,23.98
2022-09-07T18:56:36.607Z,23.98
2022-09-07T18:57:36.709Z,23.96
2022-09-07T18:58:36.631Z,23.96
2022-09-07T18:59:36.658Z,23.99
2022-09-07T19:00:36.724Z,23.96
2022-09-07T19:01:36.788Z,23.96
2022-09-07T19:02:36.880Z,23.93
2022-09-07T19:03:36.701Z,23.93
2022-09-07T19:05:52.932Z,23.91
2022-09-07T19:06:36.767Z,23.92
2022-09-07T19:07:36.754Z,23.95
2022-09-07T19:08:36.768Z,23.88
2022-09-07T19:09:36.788Z,23.88
2022-09-07T19:10:36.799Z,23.81
2022-09-07T19:11:36.807Z,23.84
2022-09-07T19:12:36.822Z,23.81
2022-09-07T19:13:36.840Z,23.78
2022-09-07T19:14:36.910Z,23.81
2022-09-07T19:15:37.750Z,23.66
2022-09-07T19:16:36.928Z,23.76
2022-09-07T19:17:36.887Z,23.74
2022-09-07T19:18:36.909Z,23.69
2022-09-07T19:19:36.913Z,23.66
2022-09-07T19:20:36.935Z,23.66
2022-09-07T19:21:36.939Z,23.69
2022-09-07T19:22:36.983Z,23.76
2022-09-07T19:23:36.975Z,23.74
2022-09-07T19:24:37.060Z,23.74
2022-09-07T19:25:37.000Z,23.74
2022-09-07T19:26:37.006Z,23.78